createdAt,value
2023-04-09T00:00:16.596Z,61.53
2023-04-09T00:03:27.673Z,61.65
2023-04-09T00:06:20.360Z,61.78
2023-04-09T00:09:19.275Z,61.96
2023-04-09T00:12:17.612Z,61.82
2023-04-09T00:15:24.068Z,61.85
2023-04-09T00:18:21.312Z,61.91
2023-04-09T00:21:12.084Z,62.03
2023-04-09T00:24:05.282Z,62.18
2023-04-09T00:26:58.184Z,62.26
2023-04-09T00:29:53.884Z,62.25
2023-04-09T00:32:45.159Z,62.30
2023-04-09T00:35:37.314Z,62.50
2023-04-09T00:38:30.788Z,62.53
2023-04-09T00:41:23.058Z,62.63
2023-04-09T00:44:16.396Z,62.54
2023-04-09T00:47:08.571Z,62.57
2023-04-09T00:49:59.429Z,62.50
2023-04-09T00:52:51.531Z,62.47
2023-04-09T00:55:43.231Z,62.34
2023-04-09T00:58:36.964Z,62.41
2023-04-09T01:01:28.038Z,62.46
2023-04-09T01:04:18.458Z,62.63
2023-04-09T01:07:12.082Z,62.68
2023-04-09T01:10:06.410Z,62.70
2023-04-09T01:13:06.097Z,62.80
2023-04-09T01:16:01.105Z,63.02
2023-04-09T01:18:53.847Z,63.08
2023-04-09T01:21:45.386Z,63.31
2023-04-09T01:24:43.362Z,63.29
2023-04-09T01:27:44.248Z,63.36
2023-04-09T01:30:35.402Z,63.53
2023-04-09T01:33:28.894Z,63.44
2023-04-09T01:36:21.552Z,63.67
2023-04-09T01:39:14.667Z,63.58
2023-04-09T01:42:09.715Z,63.85
2023-04-09T01:45:06.512Z,63.86
2023-04-09T01:47:57.469Z,63.97
2023-04-09T01:50:54.319Z,63.91
2023-04-09T01:53:49.406Z,64.16
2023-04-09T01:56:48.274Z,64.34
2023-04-09T01:59:42.208Z,64.45
2023-04-09T02:02:36.832Z,64.46
2023-04-09T02:05:32.208Z,64.61
2023-04-09T02:08:24.168Z,64.78
2023-04-09T02:11:17.059Z,64.96
2023-04-09T02:14:11.471Z,65.06
2023-04-09T02:17:11.040Z,65.33
2023-04-09T02:20:01.775Z,65.49
2023-04-09T02:22:54.991Z,65.56
2023-04-09T02:25:46.217Z,65.74
2023-04-09T02:28:37.951Z,65.80
2023-04-09T02:31:33.139Z,65.91
2023-04-09T02:34:25.907Z,65.99
2023-04-09T02:37:19.432Z,66.07
2023-04-09T02:40:15.405Z,66.22
2023-04-09T02:43:08.560Z,66.35
2023-04-09T02:45:59.314Z,66.53
2023-04-09T02:48:52.052Z,66.53
2023-04-09T02:51:47.894Z,66.56
2023-04-09T02:54:38.559Z,66.89
2023-04-09T02:57:30.577Z,66.91
2023-04-09T03:00:21.309Z,67.19
2023-04-09T03:03:13.593Z,67.25
2023-04-09T03:06:05.866Z,67.14
2023-04-09T03:08:56.798Z,67.31
2023-04-09T03:11:48.898Z,67.34
2023-04-09T03:14:40.133Z,67.36
2023-04-09T03:17:32.216Z,67.29
2023-04-09T03:20:25.223Z,67.49
2023-04-09T03:23:16.236Z,67.35
2023-04-09T03:26:10.250Z,67.55
2023-04-09T03:29:11.796Z,67.70
2023-04-09T03:32:06.524Z,67.62
2023-04-09T03:34:57.933Z,67.82
2023-04-09T03:37:55.858Z,67.91
2023-04-09T03:40:46.799Z,67.97
2023-04-09T03:43:42.339Z,68.07
2023-04-09T03:46:38.727Z,68.17
2023-04-09T03:49:32.046Z,68.38
2023-04-09T03:52:29.694Z,68.56
2023-04-09T03:55:28.301Z,68.61
2023-04-09T03:58:20.152Z,68.88
2023-04-09T04:01:14.551Z,68.81
2023-04-09T04:04:16.728Z,68.74
2023-04-09T04:07:19.088Z,69.00
2023-04-09T04:10:27.436Z,68.97
2023-04-09T04:13:18.598Z,68.98
2023-04-09T04:16:15.474Z,69.21
2023-04-09T04:19:07.897Z,69.33
2023-04-09T04:22:03.480Z,69.40
2023-04-09T04:24:57.427Z,69.47
2023-04-09T04:27:49.167Z,69.57
2023-04-09T04:30:43.887Z,69.49
2023-04-09T04:33:39.236Z,69.68
2023-04-09T04:36:34.373Z,69.66
2023-04-09T04:39:26.715Z,69.64
2023-04-09T04:42:25.930Z,69.93
2023-04-09T04:45:17.838Z,69.85
2023-04-09T04:48:13.344Z,69.91
2023-04-09T04:51:04.360Z,70.04
2023-04-09T04:54:01.131Z,70.03
2023-04-09T04:56:54.584Z,70.12
2023-04-09T05:00:08.926Z,70.26
2023-04-09T05:03:00.424Z,70.27
2023-04-09T05:06:27.087Z,70.37
2023-04-09T05:09:22.484Z,70.42
2023-04-09T05:12:31.430Z,70.43
2023-04-09T05:15:23.194Z,70.51
2023-04-09T05:18:15.355Z,70.55
2023-04-09T05:21:06.623Z,70.62
2023-04-09T05:23:59.648Z,70.52
2023-04-09T05:26:58.092Z,70.66
2023-04-09T05:29:52.665Z,70.72
2023-04-09T05:32:43.555Z,70.75
2023-04-09T05:35:40.273Z,70.64
2023-04-09T05:38:32.807Z,70.77
2023-04-09T05:41:23.741Z,70.68
2023-04-09T05:44:30.061Z,70.69
2023-04-09T05:47:28.950Z,70.65
2023-04-09T05:50:47.533Z,70.73
2023-04-09T05:53:45.897Z,70.77
2023-04-09T05:56:38.415Z,70.61
2023-04-09T05:59:31.225Z,70.78
2023-04-09T06:02:27.257Z,70.70
2023-04-09T06:05:18.193Z,70.81
2023-04-09T06:08:14.167Z,70.62
2023-04-09T06:11:07.930Z,70.71
2023-04-09T06:13:58.639Z,70.56
2023-04-09T06:16:49.818Z,70.67
2023-04-09T06:19:40.272Z,70.69
2023-04-09T06:22:32.527Z,70.43
2023-04-09T06:25:23.520Z,70.55
2023-04-09T06:28:18.236Z,70.36
2023-04-09T06:31:12.433Z,70.53
2023-04-09T06:34:06.528Z,70.46
2023-04-09T06:36:57.505Z,70.28
2023-04-09T06:40:00.504Z,70.55
2023-04-09T06:42:52.116Z,70.74
2023-04-09T06:45:53.853Z,70.61
2023-04-09T06:48:44.825Z,70.65
2023-04-09T06:51:37.424Z,70.65
2023-04-09T06:54:28.437Z,70.74
2023-04-09T06:57:25.191Z,70.73
2023-04-09T07:00:20.419Z,70.50
2023-04-09T07:03:13.925Z,70.37
2023-04-09T07:06:04.945Z,70.15
2023-04-09T07:08:55.904Z,69.88
2023-04-09T07:11:47.740Z,69.57
2023-04-09T07:14:38.941Z,69.23
2023-04-09T07:17:32.151Z,68.90
2023-04-09T07:20:25.392Z,68.85
2023-04-09T07:23:18.680Z,68.38
2023-04-09T07:26:10.733Z,68.42
2023-04-09T07:29:03.732Z,67.98
2023-04-09T07:31:55.167Z,67.25
2023-04-09T07:34:48.652Z,66.69
2023-04-09T07:37:41.899Z,65.82
2023-04-09T07:40:34.011Z,64.50
2023-04-09T07:43:26.263Z,63.93
2023-04-09T07:46:24.579Z,63.35
2023-04-09T07:49:17.578Z,63.01
2023-04-09T07:52:08.786Z,62.33
2023-04-09T07:55:05.059Z,62.07
2023-04-09T07:58:00.149Z,61.52
2023-04-09T08:00:53.059Z,61.19
2023-04-09T08:03:44.551Z,60.50
2023-04-09T08:06:36.163Z,59.71
2023-04-09T08:09:27.063Z,58.74
2023-04-09T08:12:17.566Z,57.46
2023-04-09T08:15:10.162Z,56.34
2023-04-09T08:18:03.139Z,54.52
2023-04-09T08:20:53.827Z,52.33
2023-04-09T08:23:44.506Z,50.31
2023-04-09T08:26:35.280Z,48.67
2023-04-09T08:29:25.903Z,47.19
2023-04-09T08:32:16.557Z,45.84
2023-04-09T08:35:09.163Z,44.20
2023-04-09T08:37:59.823Z,43.00
2023-04-09T08:40:50.319Z,42.10
2023-04-09T08:43:56.229Z,40.85
2023-04-09T08:46:48.802Z,39.57
2023-04-09T08:49:39.534Z,39.17
2023-04-09T08:52:35.589Z,38.53
2023-04-09T08:55:26.177Z,38.08
2023-04-09T08:58:17.157Z,38.05
2023-04-09T09:01:08.040Z,38.03
2023-04-09T09:04:00.723Z,38.25
2023-04-09T09:06:51.211Z,38.11
2023-04-09T09:09:54.464Z,38.42
2023-04-09T09:12:44.986Z,39.18
2023-04-09T09:15:35.721Z,39.36
2023-04-09T09:18:40.497Z,39.79
2023-04-09T09:21:31.748Z,40.43
2023-04-09T09:24:22.219Z,40.95
2023-04-09T09:27:12.991Z,41.70
2023-04-09T09:30:03.720Z,42.50
2023-04-09T09:32:55.675Z,43.22
2023-04-09T09:35:54.149Z,43.92
2023-04-09T09:38:56.384Z,44.66
2023-04-09T09:41:47.387Z,45.36
2023-04-09T09:44:38.357Z,45.83
2023-04-09T09:47:29.548Z,46.38
2023-04-09T09:50:20.130Z,46.93
2023-04-09T09:53:12.010Z,47.51
2023-04-09T09:56:03.187Z,47.91
2023-04-09T09:58:56.119Z,48.36
2023-04-09T10:01:47.306Z,48.71
2023-04-09T10:04:38.275Z,49.04
2023-04-09T10:07:28.735Z,49.42
2023-04-09T10:10:19.643Z,49.79
2023-04-09T10:13:11.064Z,49.94
2023-04-09T10:16:01.950Z,50.30
2023-04-09T10:18:52.656Z,50.68
2023-04-09T10:21:47.693Z,50.90
2023-04-09T10:24:38.699Z,50.99
2023-04-09T10:27:29.207Z,51.09
2023-04-09T10:30:36.711Z,51.18
2023-04-09T10:33:29.009Z,51.42
2023-04-09T10:36:22.423Z,51.28
2023-04-09T10:39:15.807Z,51.43
2023-04-09T10:42:12.775Z,51.58
2023-04-09T10:45:11.239Z,51.93
2023-04-09T10:48:03.998Z,51.96
2023-04-09T10:50:54.532Z,52.18
2023-04-09T10:53:45.044Z,52.39
2023-04-09T10:56:35.670Z,52.46
2023-04-09T10:59:27.074Z,52.67
2023-04-09T11:03:01.742Z,52.86
2023-04-09T11:05:55.140Z,52.89
2023-04-09T11:08:48.349Z,52.79
2023-04-09T11:11:38.912Z,53.05
2023-04-09T11:14:29.175Z,53.20
2023-04-09T11:17:19.840Z,53.43
2023-04-09T11:20:11.323Z,53.61
2023-04-09T11:23:01.788Z,53.90
2023-04-09T11:25:52.506Z,54.25
2023-04-09T11:28:45.366Z,54.61
2023-04-09T11:31:35.951Z,54.71
2023-04-09T11:34:29.770Z,55.04
2023-04-09T11:37:20.090Z,54.96
2023-04-09T11:40:17.731Z,54.92
2023-04-09T11:43:10.927Z,54.88
2023-04-09T11:46:01.766Z,55.10
2023-04-09T11:48:52.453Z,55.39
2023-04-09T11:51:43.284Z,55.49
2023-04-09T11:54:35.513Z,55.66
2023-04-09T11:57:26.532Z,55.86
2023-04-09T12:00:18.036Z,55.83
2023-04-09T12:03:09.132Z,55.76
2023-04-09T12:06:00.008Z,55.89
2023-04-09T12:08:53.771Z,55.93
2023-04-09T12:11:46.381Z,56.12
2023-04-09T12:14:36.977Z,56.22
2023-04-09T12:17:27.427Z,56.13
2023-04-09T12:20:32.924Z,56.16
2023-04-09T12:23:23.434Z,56.44
2023-04-09T12:26:14.759Z,56.17
2023-04-09T12:29:05.112Z,56.19
2023-04-09T12:31:56.192Z,56.25
2023-04-09T12:34:47.563Z,56.39
2023-04-09T12:37:38.071Z,56.44
2023-04-09T12:40:29.164Z,56.76
2023-04-09T12:43:19.981Z,57.01
2023-04-09T12:46:10.569Z,57.23
2023-04-09T12:49:01.185Z,57.56
2023-04-09T12:51:52.242Z,57.68
2023-04-09T12:54:44.541Z,57.54
2023-04-09T12:57:35.037Z,57.76
2023-04-09T13:00:25.753Z,57.95
2023-04-09T13:03:17.324Z,58.20
2023-04-09T13:06:09.342Z,58.36
2023-04-09T13:09:00.468Z,58.45
2023-04-09T13:11:51.711Z,58.76
2023-04-09T13:14:44.134Z,58.95
2023-04-09T13:17:34.846Z,59.28
2023-04-09T13:20:25.552Z,59.57
2023-04-09T13:23:16.071Z,59.75
2023-04-09T13:26:07.098Z,60.00
2023-04-09T13:28:57.646Z,60.21
2023-04-09T13:31:48.195Z,60.51
2023-04-09T13:34:38.954Z,60.75
2023-04-09T13:37:29.778Z,60.93
2023-04-09T13:40:20.700Z,61.14
2023-04-09T13:43:11.263Z,61.58
2023-04-09T13:46:01.911Z,61.95
2023-04-09T13:48:52.972Z,62.32
2023-04-09T13:51:43.884Z,62.83
2023-04-09T13:54:34.633Z,63.04
2023-04-09T13:57:25.196Z,63.51
2023-04-09T14:00:16.996Z,63.79
2023-04-09T14:03:08.042Z,64.09
2023-04-09T14:05:58.526Z,64.30
2023-04-09T14:08:49.692Z,64.59
2023-04-09T14:11:40.228Z,64.97
2023-04-09T14:14:30.797Z,65.45
2023-04-09T14:17:21.731Z,65.96
2023-04-09T14:20:13.203Z,66.21
2023-04-09T14:23:03.794Z,66.57
2023-04-09T14:25:54.597Z,66.86
2023-04-09T14:28:44.975Z,67.24
2023-04-09T14:31:35.438Z,67.54
2023-04-09T14:34:25.829Z,67.91
2023-04-09T14:37:16.488Z,68.08
2023-04-09T14:40:08.379Z,68.37
2023-04-09T14:42:58.792Z,68.64
2023-04-09T14:45:49.174Z,68.45
2023-04-09T14:48:40.596Z,68.62
2023-04-09T14:51:31.696Z,68.59
2023-04-09T14:54:22.141Z,68.66
2023-04-09T14:57:12.858Z,68.84
2023-04-09T15:00:06.078Z,69.11
2023-04-09T15:02:56.939Z,69.28
2023-04-09T15:05:48.130Z,69.31
2023-04-09T15:08:39.082Z,69.33
2023-04-09T15:11:29.960Z,69.02
2023-04-09T15:14:21.015Z,69.05
2023-04-09T15:17:11.420Z,69.08
2023-04-09T15:20:01.900Z,69.14
2023-04-09T15:22:52.538Z,69.25
2023-04-09T15:25:42.995Z,69.26
2023-04-09T15:28:33.497Z,69.59
2023-04-09T15:31:23.933Z,69.53
2023-04-09T15:34:15.243Z,69.49
2023-04-09T15:37:05.875Z,69.86
2023-04-09T15:39:56.647Z,69.93
2023-04-09T15:42:47.462Z,70.15
2023-04-09T15:45:38.200Z,70.44
2023-04-09T15:48:28.692Z,70.50
2023-04-09T15:51:19.182Z,70.71
2023-04-09T15:54:09.657Z,70.76
2023-04-09T15:57:00.190Z,71.01
2023-04-09T15:59:52.043Z,71.03
2023-04-09T16:02:42.832Z,71.16
2023-04-09T16:05:33.312Z,71.39
2023-04-09T16:08:23.919Z,71.43
2023-04-09T16:11:15.072Z,71.60
2023-04-09T16:14:05.883Z,71.69
2023-04-09T16:16:56.349Z,71.68
2023-04-09T16:19:46.888Z,71.80
2023-04-09T16:22:37.479Z,71.98
2023-04-09T16:25:28.106Z,71.88
2023-04-09T16:28:19.477Z,72.07
2023-04-09T16:31:10.141Z,72.11
2023-04-09T16:34:00.722Z,72.19
2023-04-09T16:36:51.753Z,72.41
2023-04-09T16:39:42.361Z,72.59
2023-04-09T16:42:33.256Z,72.76
2023-04-09T16:45:23.950Z,73.04
2023-04-09T16:48:14.626Z,73.01
2023-04-09T16:51:05.039Z,73.08
2023-04-09T16:53:55.838Z,73.24
2023-04-09T16:56:46.505Z,73.29
2023-04-09T16:59:36.761Z,73.25
2023-04-09T17:02:27.786Z,73.44
2023-04-09T17:05:18.581Z,73.39
2023-04-09T17:08:09.315Z,73.76
2023-04-09T17:11:02.998Z,73.81
2023-04-09T17:13:54.445Z,74.14
2023-04-09T17:16:45.829Z,74.10
2023-04-09T17:19:36.828Z,74.12
2023-04-09T17:22:27.276Z,74.18
2023-04-09T17:25:18.247Z,74.25
2023-04-09T17:28:09.663Z,74.50
2023-04-09T17:31:00.186Z,74.17
2023-04-09T17:33:51.017Z,74.44
2023-04-09T17:36:42.586Z,74.43
2023-04-09T17:39:33.307Z,74.47
2023-04-09T17:42:24.626Z,74.62
2023-04-09T17:45:16.166Z,74.65
2023-04-09T17:48:07.026Z,74.73
2023-04-09T17:50:58.232Z,74.63
2023-04-09T17:53:48.815Z,74.53
2023-04-09T17:56:39.167Z,74.51
2023-04-09T17:59:29.968Z,74.40
2023-04-09T18:02:21.724Z,74.44
2023-04-09T18:05:13.710Z,74.23
2023-04-09T18:08:04.578Z,74.27
2023-04-09T18:11:11.528Z,74.17
2023-04-09T18:14:07.997Z,74.07
2023-04-09T18:16:58.311Z,74.28
2023-04-09T18:19:49.259Z,74.12
2023-04-09T18:22:40.040Z,74.27
2023-04-09T18:25:30.771Z,74.17
2023-04-09T18:28:21.452Z,74.27
2023-04-09T18:31:13.427Z,74.23
2023-04-09T18:34:03.835Z,74.14
2023-04-09T18:36:54.654Z,73.91
2023-04-09T18:39:45.187Z,73.96
2023-04-09T18:42:36.033Z,73.99
2023-04-09T18:45:26.722Z,74.12
2023-04-09T18:48:17.215Z,74.17
2023-04-09T18:51:08.499Z,74.10
2023-04-09T18:54:00.673Z,74.21
2023-04-09T18:56:51.386Z,74.22
2023-04-09T18:59:42.278Z,73.96
2023-04-09T19:02:33.376Z,73.86
2023-04-09T19:05:24.186Z,74.06
2023-04-09T19:08:14.995Z,74.02
2023-04-09T19:11:06.323Z,74.33
2023-04-09T19:13:57.236Z,74.27
2023-04-09T19:16:47.968Z,74.32
2023-04-09T19:19:38.398Z,74.46
2023-04-09T19:22:29.971Z,74.35
2023-04-09T19:25:20.360Z,74.21
2023-04-09T19:28:11.675Z,74.54
2023-04-09T19:31:03.616Z,74.51
2023-04-09T19:33:54.530Z,74.51
2023-04-09T19:36:44.953Z,74.50
2023-04-09T19:39:35.799Z,74.65
2023-04-09T19:42:28.647Z,74.61
2023-04-09T19:45:19.880Z,74.79
2023-04-09T19:48:10.843Z,74.65
2023-04-09T19:51:02.110Z,74.70
2023-04-09T19:53:52.932Z,74.80
2023-04-09T19:56:43.479Z,74.94
2023-04-09T19:59:37.459Z,74.83
2023-04-09T20:02:28.300Z,75.06
2023-04-09T20:05:21.042Z,74.90
2023-04-09T20:08:15.616Z,75.11
2023-04-09T20:11:06.964Z,75.24
2023-04-09T20:13:58.563Z,75.43
2023-04-09T20:16:49.302Z,75.25
2023-04-09T20:19:43.308Z,75.34
2023-04-09T20:22:37.034Z,75.46
2023-04-09T20:25:34.973Z,75.34
2023-04-09T20:28:26.113Z,75.49
2023-04-09T20:31:17.406Z,75.38
2023-04-09T20:34:09.478Z,75.47
2023-04-09T20:37:00.643Z,75.24
2023-04-09T20:39:51.600Z,75.64
2023-04-09T20:42:42.846Z,75.34
2023-04-09T20:45:35.259Z,75.30
2023-04-09T20:48:26.514Z,75.23
2023-04-09T20:51:18.194Z,75.27
2023-04-09T20:54:09.449Z,75.35
2023-04-09T20:57:01.820Z,75.35
2023-04-09T20:59:53.999Z,75.40
2023-04-09T21:02:45.092Z,75.36
2023-04-09T21:05:36.865Z,75.59
2023-04-09T21:08:27.647Z,75.84
2023-04-09T21:11:18.033Z,75.74
2023-04-09T21:14:10.950Z,75.83
2023-04-09T21:17:01.446Z,75.97
2023-04-09T21:19:53.281Z,76.04
2023-04-09T21:22:43.814Z,76.08
2023-04-09T21:25:37.003Z,76.16
2023-04-09T21:28:28.477Z,76.05
2023-04-09T21:31:18.821Z,76.05
2023-04-09T21:34:09.287Z,76.36
2023-04-09T21:36:59.834Z,76.27
2023-04-09T21:39:50.420Z,76.54
2023-04-09T21:42:41.136Z,76.60
2023-04-09T21:45:32.190Z,76.58
2023-04-09T21:48:22.748Z,76.54
2023-04-09T21:51:13.597Z,76.57
2023-04-09T21:54:07.718Z,76.68
2023-04-09T21:56:58.328Z,76.98
2023-04-09T21:59:48.760Z,76.69
2023-04-09T22:02:40.273Z,76.70
2023-04-09T22:05:31.201Z,76.54
2023-04-09T22:08:21.611Z,76.71
2023-04-09T22:11:12.198Z,76.61
2023-04-09T22:14:02.584Z,76.76
2023-04-09T22:16:54.150Z,76.83
2023-04-09T22:19:44.674Z,76.93
2023-04-09T22:22:35.176Z,77.06
2023-04-09T22:25:26.084Z,77.16
2023-04-09T22:28:16.813Z,77.05
2023-04-09T22:31:07.887Z,77.11
2023-04-09T22:34:10.079Z,77.01
2023-04-09T22:37:07.933Z,77.13
2023-04-09T22:39:58.843Z,76.99
2023-04-09T22:42:50.068Z,77.01
2023-04-09T22:45:40.759Z,77.10
2023-04-09T22:48:31.371Z,77.13
2023-04-09T22:51:23.674Z,77.14
2023-04-09T22:54:14.246Z,77.22
2023-04-09T22:57:04.752Z,77.17
2023-04-09T22:59:55.446Z,77.37
2023-04-09T23:02:47.499Z,77.52
2023-04-09T23:05:38.251Z,77.35
2023-04-09T23:08:28.702Z,77.50
2023-04-09T23:11:19.168Z,77.54
2023-04-09T23:14:09.502Z,77.65
2023-04-09T23:16:59.993Z,77.96
2023-04-09T23:19:50.306Z,77.90
2023-04-09T23:22:40.892Z,77.82
2023-04-09T23:25:31.478Z,77.73
2023-04-09T23:28:22.211Z,77.82
2023-04-09T23:31:12.792Z,78.01
2023-04-09T23:34:03.813Z,77.82
2023-04-09T23:36:54.324Z,77.88
2023-04-09T23:39:44.784Z,77.77
2023-04-09T23:42:35.247Z,78.03
2023-04-09T23:45:25.666Z,78.02
2023-04-09T23:48:16.274Z,78.30
2023-04-09T23:51:07.378Z,78.29
2023-04-09T23:53:58.022Z,78.28
2023-04-09T23:56:48.647Z,78.32
2023-04-09T23:59:39.475Z,78.04
